sensor_id;sensor_type;location;lat;lon;timestamp;pressure;altitude;pressure_sealevel;temperature;humidity
80382;BME280;69692;55.820;37.490;2023-07-29T00:01:31;98824.22;;;16.40;84.21
80382;BME280;69692;55.820;37.490;2023-07-29T00:03:57;98822.03;;;16.43;84.68
80382;BME280;69692;55.820;37.490;2023-07-29T00:06:23;98823.44;;;16.40;84.90
80382;BME280;69692;55.820;37.490;2023-07-29T00:08:49;98817.75;;;16.36;84.96
80382;BME280;69692;55.820;37.490;2023-07-29T00:11:15;98804.72;;;16.38;84.23
80382;BME280;69692;55.820;37.490;2023-07-29T00:13:41;98809.84;;;16.40;84.16
80382;BME280;69692;55.820;37.490;2023-07-29T00:16:07;98802.28;;;16.37;84.38
80382;BME280;69692;55.820;37.490;2023-07-29T00:18:32;98806.03;;;16.41;84.19
80382;BME280;69692;55.820;37.490;2023-07-29T00:20:58;98814.78;;;16.38;84.17
80382;BME280;69692;55.820;37.490;2023-07-29T00:23:24;98820.22;;;16.33;84.96
80382;BME280;69692;55.820;37.490;2023-07-29T00:25:50;98828.38;;;16.33;84.76
80382;BME280;69692;55.820;37.490;2023-07-29T00:28:16;98824.84;;;16.32;84.54
80382;BME280;69692;55.820;37.490;2023-07-29T00:30:44;98822.13;;;16.32;84.60
80382;BME280;69692;55.820;37.490;2023-07-29T00:33:10;98821.91;;;16.29;84.15
80382;BME280;69692;55.820;37.490;2023-07-29T00:35:38;98831.09;;;16.33;84.73
80382;BME280;69692;55.820;37.490;2023-07-29T00:38:04;98815.91;;;16.32;84.18
80382;BME280;69692;55.820;37.490;2023-07-29T00:40:30;98812.91;;;16.33;84.06
80382;BME280;69692;55.820;37.490;2023-07-29T00:43:00;98815.31;;;16.35;84.14
80382;BME280;69692;55.820;37.490;2023-07-29T00:45:26;98818.03;;;16.35;84.83
80382;BME280;69692;55.820;37.490;2023-07-29T00:47:52;98826.25;;;16.30;85.16
80382;BME280;69692;55.820;37.490;2023-07-29T00:50:18;98817.00;;;16.31;85.61
80382;BME280;69692;55.820;37.490;2023-07-29T00:52:44;98808.84;;;16.31;84.29
80382;BME280;69692;55.820;37.490;2023-07-29T00:55:10;98803.94;;;16.33;84.18
80382;BME280;69692;55.820;37.490;2023-07-29T00:57:36;98806.94;;;16.31;85.99
80382;BME280;69692;55.820;37.490;2023-07-29T01:00:04;98801.00;;;16.29;85.18
80382;BME280;69692;55.820;37.490;2023-07-29T01:02:34;98809.16;;;16.29;85.94
80382;BME280;69692;55.820;37.490;2023-07-29T01:05:00;98809.97;;;16.30;86.19
80382;BME280;69692;55.820;37.490;2023-07-29T01:07:49;98807.53;;;16.28;85.51
80382;BME280;69692;55.820;37.490;2023-07-29T01:13:17;98793.75;;;16.25;85.25
80382;BME280;69692;55.820;37.490;2023-07-29T01:15:57;98795.66;;;16.24;84.79
80382;BME280;69692;55.820;37.490;2023-07-29T01:18:31;98786.22;;;16.17;84.49
80382;BME280;69692;55.820;37.490;2023-07-29T01:21:01;98778.44;;;16.10;84.68
80382;BME280;69692;55.820;37.490;2023-07-29T01:23:32;98787.38;;;16.10;84.87
80382;BME280;69692;55.820;37.490;2023-07-29T01:25:59;98775.47;;;16.06;84.59
80382;BME280;69692;55.820;37.490;2023-07-29T01:28:26;98776.56;;;16.05;84.55
80382;BME280;69692;55.820;37.490;2023-07-29T01:30:58;98771.94;;;16.06;84.35
80382;BME280;69692;55.820;37.490;2023-07-29T01:33:31;98781.97;;;16.05;84.20
80382;BME280;69692;55.820;37.490;2023-07-29T01:36:07;98767.91;;;16.03;85.13
80382;BME280;69692;55.820;37.490;2023-07-29T01:38:38;98764.72;;;15.96;84.47
80382;BME280;69692;55.820;37.490;2023-07-29T01:41:08;98757.69;;;15.95;85.80
80382;BME280;69692;55.820;37.490;2023-07-29T01:43:36;98757.97;;;15.94;87.01
80382;BME280;69692;55.820;37.490;2023-07-29T01:46:10;98763.16;;;15.90;86.30
80382;BME280;69692;55.820;37.490;2023-07-29T01:48:38;98752.59;;;15.89;86.76
80382;BME280;69692;55.820;37.490;2023-07-29T01:51:05;98742.25;;;15.91;85.91
80382;BME280;69692;55.820;37.490;2023-07-29T01:53:31;98745.22;;;15.94;85.82
80382;BME280;69692;55.820;37.490;2023-07-29T01:55:57;98748.75;;;15.95;86.40
80382;BME280;69692;55.820;37.490;2023-07-29T01:58:24;98751.75;;;15.93;86.37
80382;BME280;69692;55.820;37.490;2023-07-29T02:00:49;98757.44;;;15.92;86.46
80382;BME280;69692;55.820;37.490;2023-07-29T02:03:15;98753.88;;;15.96;86.13
80382;BME280;69692;55.820;37.490;2023-07-29T02:05:41;98761.44;;;15.99;85.91
80382;BME280;69692;55.820;37.490;2023-07-29T02:08:10;98755.13;;;16.04;85.44
80382;BME280;69692;55.820;37.490;2023-07-29T02:10:37;98763.53;;;16.07;85.71
80382;BME280;69692;55.820;37.490;2023-07-29T02:13:04;98764.34;;;16.08;85.40
80382;BME280;69692;55.820;37.490;2023-07-29T02:15:31;98766.19;;;16.13;84.94
80382;BME280;69692;55.820;37.490;2023-07-29T02:17:58;98775.13;;;16.13;85.50
80382;BME280;69692;55.820;37.490;2023-07-29T02:20:25;98784.66;;;16.10;84.92
80382;BME280;69692;55.820;37.490;2023-07-29T02:22:51;98788.75;;;16.08;85.67
80382;BME280;69692;55.820;37.490;2023-07-29T02:25:17;98796.91;;;16.08;85.78
80382;BME280;69692;55.820;37.490;2023-07-29T02:27:45;98795.00;;;16.08;85.70
80382;BME280;69692;55.820;37.490;2023-07-29T02:30:12;98785.47;;;16.11;85.43
80382;BME280;69692;55.820;37.490;2023-07-29T02:32:38;98802.56;;;16.12;86.54
80382;BME280;69692;55.820;37.490;2023-07-29T02:35:06;98806.88;;;16.13;85.41
80382;BME280;69692;55.820;37.490;2023-07-29T02:37:32;98809.13;;;16.05;85.89
80382;BME280;69692;55.820;37.490;2023-07-29T02:39:58;98810.72;;;16.06;85.52
80382;BME280;69692;55.820;37.490;2023-07-29T02:42:24;98812.91;;;16.09;86.46
80382;BME280;69692;55.820;37.490;2023-07-29T02:44:50;98803.06;;;16.14;86.11
80382;BME280;69692;55.820;37.490;2023-07-29T02:47:15;98797.13;;;16.12;86.04
80382;BME280;69692;55.820;37.490;2023-07-29T02:49:41;98798.75;;;16.13;85.86
80382;BME280;69692;55.820;37.490;2023-07-29T02:52:07;98791.19;;;16.09;85.82
80382;BME280;69692;55.820;37.490;2023-07-29T02:54:33;98787.38;;;16.10;85.80
80382;BME280;69692;55.820;37.490;2023-07-29T02:57:00;98793.03;;;16.14;85.71
80382;BME280;69692;55.820;37.490;2023-07-29T02:59:26;98780.63;;;16.08;85.54
80382;BME280;69692;55.820;37.490;2023-07-29T03:01:52;98778.16;;;16.06;85.53
80382;BME280;69692;55.820;37.490;2023-07-29T03:04:19;98776.84;;;16.04;85.56
80382;BME280;69692;55.820;37.490;2023-07-29T03:06:45;98776.91;;;15.99;85.91
80382;BME280;69692;55.820;37.490;2023-07-29T03:09:14;98776.09;;;15.98;86.68
80382;BME280;69692;55.820;37.490;2023-07-29T03:11:40;98776.63;;;16.00;87.02
80382;BME280;69692;55.820;37.490;2023-07-29T03:14:06;98783.38;;;16.03;86.99
80382;BME280;69692;55.820;37.490;2023-07-29T03:16:32;98777.94;;;16.03;87.61
80382;BME280;69692;55.820;37.490;2023-07-29T03:19:00;98777.94;;;16.03;87.93
80382;BME280;69692;55.820;37.490;2023-07-29T03:21:26;98775.22;;;16.03;88.18
80382;BME280;69692;55.820;37.490;2023-07-29T03:23:52;98777.91;;;16.08;88.41
80382;BME280;69692;55.820;37.490;2023-07-29T03:26:18;98769.19;;;16.11;88.11
80382;BME280;69692;55.820;37.490;2023-07-29T03:28:44;98761.63;;;16.08;87.95
80382;BME280;69692;55.820;37.490;2023-07-29T03:31:11;98760.53;;;16.09;87.66
80382;BME280;69692;55.820;37.490;2023-07-29T03:33:37;98751.03;;;16.06;88.11
80382;BME280;69692;55.820;37.490;2023-07-29T03:36:03;98746.66;;;16.10;87.29
80382;BME280;69692;55.820;37.490;2023-07-29T03:38:29;98746.38;;;16.12;87.39
80382;BME280;69692;55.820;37.490;2023-07-29T03:40:56;98746.97;;;16.09;86.65
80382;BME280;69692;55.820;37.490;2023-07-29T03:43:22;98740.75;;;16.03;87.29
80382;BME280;69692;55.820;37.490;2023-07-29T03:45:48;98743.78;;;16.02;87.19
80382;BME280;69692;55.820;37.490;2023-07-29T03:48:14;98740.75;;;16.03;87.71
80382;BME280;69692;55.820;37.490;2023-07-29T03:50:40;98733.78;;;15.97;87.02
80382;BME280;69692;55.820;37.490;2023-07-29T03:53:06;98747.28;;;16.02;87.46
80382;BME280;69692;55.820;37.490;2023-07-29T03:55:32;98737.75;;;16.05;87.70
80382;BME280;69692;55.820;37.490;2023-07-29T03:58:00;98733.22;;;16.00;87.71
80382;BME280;69692;55.820;37.490;2023-07-29T04:00:27;98725.06;;;16.00;87.68
80382;BME280;69692;55.820;37.490;2023-07-29T04:02:54;98726.34;;;16.08;87.50
80382;BME280;69692;55.820;37.490;2023-07-29T04:05:20;98724.16;;;16.10;87.99
80382;BME280;69692;55.820;37.490;2023-07-29T04:07:47;98710.50;;;16.15;87.24
80382;BME280;69692;55.820;37.490;2023-07-29T04:10:14;98708.59;;;16.16;86.92
80382;BME280;69692;55.820;37.490;2023-07-29T04:12:41;98717.78;;;16.20;86.68
80382;BME280;69692;55.820;37.490;2023-07-29T04:15:07;98721.59;;;16.19;86.82
80382;BME280;69692;55.820;37.490;2023-07-29T04:17:33;98721.00;;;16.22;87.18
80382;BME280;69692;55.820;37.490;2023-07-29T04:19:59;98726.22;;;16.18;87.18
80382;BME280;69692;55.820;37.490;2023-07-29T04:22:31;98714.03;;;16.16;87.01
80382;BME280;69692;55.820;37.490;2023-07-29T04:24:57;98722.19;;;16.16;87.94
80382;BME280;69692;55.820;37.490;2023-07-29T04:27:23;98725.41;;;16.18;86.93
80382;BME280;69692;55.820;37.490;2023-07-29T04:29:49;98720.28;;;16.16;87.69
80382;BME280;69692;55.820;37.490;2023-07-29T04:32:15;98717.25;;;16.18;87.55
80382;BME280;69692;55.820;37.490;2023-07-29T04:34:42;98724.00;;;16.20;87.51
80382;BME280;69692;55.820;37.490;2023-07-29T04:37:08;98710.72;;;16.19;86.86
80382;BME280;69692;55.820;37.490;2023-07-29T04:39:34;98714.63;;;16.13;87.74
80382;BME280;69692;55.820;37.490;2023-07-29T04:42:01;98723.88;;;16.12;86.65
80382;BME280;69692;55.820;37.490;2023-07-29T04:44:27;98724.97;;;16.10;86.93
80382;BME280;69692;55.820;37.490;2023-07-29T04:46:53;98714.69;;;16.07;86.29
80382;BME280;69692;55.820;37.490;2023-07-29T04:49:20;98723.06;;;16.11;86.96
80382;BME280;69692;55.820;37.490;2023-07-29T04:51:46;98721.19;;;16.06;86.98
80382;BME280;69692;55.820;37.490;2023-07-29T04:54:13;98711.44;;;16.05;87.29
80382;BME280;69692;55.820;37.490;2023-07-29T04:56:39;98719.81;;;16.09;86.98
80382;BME280;69692;55.820;37.490;2023-07-29T04:59:05;98715.25;;;16.04;87.51
80382;BME280;69692;55.820;37.490;2023-07-29T05:01:31;98714.16;;;16.05;88.02
80382;BME280;69692;55.820;37.490;2023-07-29T05:03:57;98710.91;;;16.03;86.90
80382;BME280;69692;55.820;37.490;2023-07-29T05:06:23;98716.84;;;16.05;86.62
80382;BME280;69692;55.820;37.490;2023-07-29T05:08:49;98713.59;;;16.08;87.11
80382;BME280;69692;55.820;37.490;2023-07-29T05:11:15;98708.16;;;16.08;87.29
80382;BME280;69692;55.820;37.490;2023-07-29T05:13:42;98699.94;;;16.14;87.23
80382;BME280;69692;55.820;37.490;2023-07-29T05:16:10;98703.25;;;16.10;87.41
80382;BME280;69692;55.820;37.490;2023-07-29T05:18:37;98705.38;;;16.14;86.66
80382;BME280;69692;55.820;37.490;2023-07-29T05:21:04;98699.06;;;16.18;86.20
80382;BME280;69692;55.820;37.490;2023-07-29T05:23:30;98694.97;;;16.21;86.05
80382;BME280;69692;55.820;37.490;2023-07-29T05:25:56;98693.59;;;16.23;86.54
80382;BME280;69692;55.820;37.490;2023-07-29T05:28:22;98693.31;;;16.25;86.07
80382;BME280;69692;55.820;37.490;2023-07-29T05:30:49;98682.75;;;16.23;86.31
80382;BME280;69692;55.820;37.490;2023-07-29T05:33:15;98681.56;;;16.29;85.80
80382;BME280;69692;55.820;37.490;2023-07-29T05:35:41;98685.59;;;16.32;85.49
80382;BME280;69692;55.820;37.490;2023-07-29T05:38:07;98688.53;;;16.35;85.26
80382;BME280;69692;55.820;37.490;2023-07-29T05:40:34;98686.38;;;16.37;84.98
80382;BME280;69692;55.820;37.490;2023-07-29T05:43:01;98686.63;;;16.36;85.14
80382;BME280;69692;55.820;37.490;2023-07-29T05:45:29;98678.72;;;16.39;85.31
80382;BME280;69692;55.820;37.490;2023-07-29T05:47:57;98677.91;;;16.39;85.85
80382;BME280;69692;55.820;37.490;2023-07-29T05:50:23;98680.34;;;16.40;85.59
80382;BME280;69692;55.820;37.490;2023-07-29T05:52:49;98683.34;;;16.39;84.75
80382;BME280;69692;55.820;37.490;2023-07-29T05:55:15;98683.06;;;16.40;85.24
80382;BME280;69692;55.820;37.490;2023-07-29T05:57:41;98686.06;;;16.39;85.02
80382;BME280;69692;55.820;37.490;2023-07-29T06:00:08;98693.63;;;16.42;85.32
80382;BME280;69692;55.820;37.490;2023-07-29T06:02:43;98700.66;;;16.43;85.05
80382;BME280;69692;55.820;37.490;2023-07-29T06:05:13;98695.25;;;16.43;85.12
80382;BME280;69692;55.820;37.490;2023-07-29T06:07:39;98700.66;;;16.43;85.26
80382;BME280;69692;55.820;37.490;2023-07-29T06:10:10;98701.19;;;16.45;85.52
80382;BME280;69692;55.820;37.490;2023-07-29T06:12:39;98715.56;;;16.46;85.81
80382;BME280;69692;55.820;37.490;2023-07-29T06:15:05;98712.56;;;16.47;85.92
80382;BME280;69692;55.820;37.490;2023-07-29T06:17:31;98716.44;;;16.41;86.48
80382;BME280;69692;55.820;37.490;2023-07-29T06:19:57;98724.00;;;16.44;84.50
80382;BME280;69692;55.820;37.490;2023-07-29T06:22:23;98725.31;;;16.47;85.19
80382;BME280;69692;55.820;37.490;2023-07-29T06:24:48;98730.47;;;16.48;84.80
80382;BME280;69692;55.820;37.490;2023-07-29T06:27:14;98727.22;;;16.46;84.41
80382;BME280;69692;55.820;37.490;2023-07-29T06:29:40;98740.00;;;16.46;84.96
80382;BME280;69692;55.820;37.490;2023-07-29T06:32:06;98739.13;;;16.50;84.91
80382;BME280;69692;55.820;37.490;2023-07-29T06:34:32;98739.38;;;16.54;85.01
80382;BME280;69692;55.820;37.490;2023-07-29T06:36:58;98742.28;;;16.57;84.86
80382;BME280;69692;55.820;37.490;2023-07-29T06:39:23;98740.59;;;16.61;84.96
80382;BME280;69692;55.820;37.490;2023-07-29T06:41:49;98746.84;;;16.62;84.57
80382;BME280;69692;55.820;37.490;2023-07-29T06:44:17;98747.59;;;17.75;86.94
80382;BME280;69692;55.820;37.490;2023-07-29T06:46:43;98743.41;;;18.38;78.82
80382;BME280;69692;55.820;37.490;2023-07-29T06:49:09;98748.97;;;18.19;77.58
80382;BME280;69692;55.820;37.490;2023-07-29T06:51:35;98750.94;;;17.86;78.81
80382;BME280;69692;55.820;37.490;2023-07-29T06:54:02;98748.50;;;17.52;80.08
80382;BME280;69692;55.820;37.490;2023-07-29T06:56:29;98752.22;;;17.23;81.24
80382;BME280;69692;55.820;37.490;2023-07-29T06:58:55;98753.94;;;17.01;82.33
80382;BME280;69692;55.820;37.490;2023-07-29T07:01:21;98756.00;;;16.90;83.17
80382;BME280;69692;55.820;37.490;2023-07-29T07:03:47;98764.53;;;16.83;83.66
80382;BME280;69692;55.820;37.490;2023-07-29T07:06:13;98770.31;;;16.77;83.85
80382;BME280;69692;55.820;37.490;2023-07-29T07:08:39;98764.44;;;16.69;83.97
80382;BME280;69692;55.820;37.490;2023-07-29T07:11:06;98770.47;;;16.61;84.12
80382;BME280;69692;55.820;37.490;2023-07-29T07:13:33;98777.59;;;16.57;84.44
80382;BME280;69692;55.820;37.490;2023-07-29T07:15:58;98782.31;;;16.52;84.60
80382;BME280;69692;55.820;37.490;2023-07-29T07:18:24;98780.94;;;16.49;85.23
80382;BME280;69692;55.820;37.490;2023-07-29T07:20:51;98773.38;;;16.46;85.40
80382;BME280;69692;55.820;37.490;2023-07-29T07:23:17;98764.72;;;16.44;85.73
80382;BME280;69692;55.820;37.490;2023-07-29T07:25:43;98773.09;;;16.48;85.79
80382;BME280;69692;55.820;37.490;2023-07-29T07:28:09;98779.03;;;16.50;85.97
80382;BME280;69692;55.820;37.490;2023-07-29T07:30:39;98765.81;;;16.43;85.83
80382;BME280;69692;55.820;37.490;2023-07-29T07:33:07;98769.88;;;16.46;86.49
80382;BME280;69692;55.820;37.490;2023-07-29T07:35:33;98765.25;;;16.46;85.96
80382;BME280;69692;55.820;37.490;2023-07-29T07:37:59;98770.16;;;16.44;86.37
80382;BME280;69692;55.820;37.490;2023-07-29T07:40:27;98770.44;;;16.43;86.55
80382;BME280;69692;55.820;37.490;2023-07-29T07:42:53;98773.25;;;16.37;86.50
80382;BME280;69692;55.820;37.490;2023-07-29T07:45:19;98765.94;;;16.33;87.09
80382;BME280;69692;55.820;37.490;2023-07-29T07:47:45;98774.59;;;16.35;87.70
80382;BME280;69692;55.820;37.490;2023-07-29T07:50:11;98765.09;;;16.37;87.50
80382;BME280;69692;55.820;37.490;2023-07-29T07:52:37;98761.03;;;16.35;87.45
80382;BME280;69692;55.820;37.490;2023-07-29T07:55:03;98772.13;;;16.38;87.44
80382;BME280;69692;55.820;37.490;2023-07-29T07:57:29;98767.16;;;16.46;87.82
80382;BME280;69692;55.820;37.490;2023-07-29T07:59:55;98766.00;;;16.52;87.62
80382;BME280;69692;55.820;37.490;2023-07-29T08:02:21;98767.63;;;16.53;87.00
80382;BME280;69692;55.820;37.490;2023-07-29T08:04:47;98773.78;;;16.58;88.13
80382;BME280;69692;55.820;37.490;2023-07-29T08:07:13;98774.78;;;16.67;88.70
80382;BME280;69692;55.820;37.490;2023-07-29T08:09:39;98782.34;;;16.71;87.50
80382;BME280;69692;55.820;37.490;2023-07-29T08:12:05;98769.56;;;16.71;87.29
80382;BME280;69692;55.820;37.490;2023-07-29T08:14:31;98777.22;;;16.69;86.91
80382;BME280;69692;55.820;37.490;2023-07-29T08:16:57;98773.91;;;16.72;86.85
80382;BME280;69692;55.820;37.490;2023-07-29T08:19:23;98770.81;;;16.79;86.39
80382;BME280;69692;55.820;37.490;2023-07-29T08:21:48;98768.91;;;16.79;86.18
80382;BME280;69692;55.820;37.490;2023-07-29T08:24:14;98768.09;;;16.79;85.77
80382;BME280;69692;55.820;37.490;2023-07-29T08:26:40;98774.59;;;16.83;86.27
80382;BME280;69692;55.820;37.490;2023-07-29T08:29:06;98774.00;;;16.86;86.61
80382;BME280;69692;55.820;37.490;2023-07-29T08:31:31;98774.00;;;16.86;85.55
80382;BME280;69692;55.820;37.490;2023-07-29T08:34:00;98774.59;;;16.83;85.03
80382;BME280;69692;55.820;37.490;2023-07-29T08:36:26;98777.31;;;16.83;84.98
80382;BME280;69692;55.820;37.490;2023-07-29T08:38:52;98788.69;;;16.85;85.49
80382;BME280;69692;55.820;37.490;2023-07-29T08:41:40;98788.72;;;16.80;84.87
80382;BME280;69692;55.820;37.490;2023-07-29T08:44:18;98772.13;;;16.81;85.42
80382;BME280;69692;55.820;37.490;2023-07-29T08:46:44;98779.88;;;16.93;86.27
80382;BME280;69692;55.820;37.490;2023-07-29T08:49:12;98776.19;;;17.03;85.25
80382;BME280;69692;55.820;37.490;2023-07-29T08:51:42;98777.00;;;17.03;85.57
80382;BME280;69692;55.820;37.490;2023-07-29T08:54:08;98772.28;;;17.09;84.73
80382;BME280;69692;55.820;37.490;2023-07-29T08:56:36;98772.81;;;17.11;83.98
80382;BME280;69692;55.820;37.490;2023-07-29T08:59:02;98769.28;;;17.10;84.71
80382;BME280;69692;55.820;37.490;2023-07-29T09:01:30;98772.81;;;17.11;84.57
80382;BME280;69692;55.820;37.490;2023-07-29T09:03:56;98768.47;;;17.10;83.67
80382;BME280;69692;55.820;37.490;2023-07-29T09:06:23;98778.53;;;17.09;83.84
80382;BME280;69692;55.820;37.490;2023-07-29T09:08:53;98781.34;;;17.04;83.92
80382;BME280;69692;55.820;37.490;2023-07-29T09:11:20;98779.72;;;17.03;85.29
80382;BME280;69692;55.820;37.490;2023-07-29T09:13:46;98782.06;;;17.10;84.51
80382;BME280;69692;55.820;37.490;2023-07-29T09:16:13;98763.34;;;17.08;83.60
80382;BME280;69692;55.820;37.490;2023-07-29T09:18:39;98767.25;;;17.02;84.01
80382;BME280;69692;55.820;37.490;2023-07-29T09:21:05;98761.13;;;16.91;83.71
80382;BME280;69692;55.820;37.490;2023-07-29T09:23:41;98776.56;;;16.96;84.05
80382;BME280;69692;55.820;37.490;2023-07-29T09:26:08;98777.09;;;16.98;83.43
80382;BME280;69692;55.820;37.490;2023-07-29T09:28:36;98772.69;;;17.02;82.92
80382;BME280;69692;55.820;37.490;2023-07-29T09:31:03;98778.91;;;17.03;83.54
80382;BME280;69692;55.820;37.490;2023-07-29T09:33:29;98775.91;;;17.04;82.54
80382;BME280;69692;55.820;37.490;2023-07-29T09:35:57;98787.78;;;17.08;83.37
80382;BME280;69692;55.820;37.490;2023-07-29T09:38:27;98789.13;;;17.11;82.88
80382;BME280;69692;55.820;37.490;2023-07-29T09:40:57;98793.19;;;17.13;82.36
80382;BME280;69692;55.820;37.490;2023-07-29T09:43:33;98780.97;;;17.11;83.02
80382;BME280;69692;55.820;37.490;2023-07-29T09:46:01;98795.31;;;17.16;83.15
80382;BME280;69692;55.820;37.490;2023-07-29T09:48:28;98798.53;;;17.18;82.68
80382;BME280;69692;55.820;37.490;2023-07-29T09:50:57;98786.63;;;17.14;82.51
80382;BME280;69692;55.820;37.490;2023-07-29T09:53:24;98790.47;;;17.13;82.35
80382;BME280;69692;55.820;37.490;2023-07-29T09:55:49;98787.22;;;17.11;82.01
80382;BME280;69692;55.820;37.490;2023-07-29T09:58:36;98789.66;;;17.13;82.30
80382;BME280;69692;55.820;37.490;2023-07-29T10:01:07;98795.91;;;17.13;83.06
80382;BME280;69692;55.820;37.490;2023-07-29T10:03:34;98786.13;;;17.12;82.81
80382;BME280;69692;55.820;37.490;2023-07-29T10:06:05;98790.69;;;17.17;83.37
80382;BME280;69692;55.820;37.490;2023-07-29T10:08:31;98785.44;;;17.20;82.58
80382;BME280;69692;55.820;37.490;2023-07-29T10:11:08;98787.06;;;17.21;82.33
80382;BME280;69692;55.820;37.490;2023-07-29T10:13:36;98793.53;;;17.25;82.55
80382;BME280;69692;55.820;37.490;2023-07-29T10:16:03;98781.56;;;17.26;82.52
80382;BME280;69692;55.820;37.490;2023-07-29T10:18:33;98792.34;;;17.32;83.09
80382;BME280;69692;55.820;37.490;2023-07-29T10:21:01;98796.59;;;17.38;83.05
80382;BME280;69692;55.820;37.490;2023-07-29T10:23:32;98787.34;;;17.39;82.71
80382;BME280;69692;55.820;37.490;2023-07-29T10:26:03;98795.00;;;17.37;82.30
80382;BME280;69692;55.820;37.490;2023-07-29T10:28:30;98799.56;;;17.41;85.46
80382;BME280;69692;55.820;37.490;2023-07-29T10:30:57;98802.84;;;17.38;82.57
80382;BME280;69692;55.820;37.490;2023-07-29T10:33:24;98805.06;;;17.36;82.61
80382;BME280;69692;55.820;37.490;2023-07-29T10:35:50;98805.88;;;17.37;82.78
80382;BME280;69692;55.820;37.490;2023-07-29T10:38:17;98805.06;;;17.36;82.41
80382;BME280;69692;55.820;37.490;2023-07-29T10:40:56;98802.63;;;17.35;82.64
80382;BME280;69692;55.820;37.490;2023-07-29T10:43:25;98802.13;;;17.33;82.08
80382;BME280;69692;55.820;37.490;2023-07-29T10:45:52;98803.53;;;17.30;83.30
80382;BME280;69692;55.820;37.490;2023-07-29T10:48:41;98809.47;;;17.32;84.33
80382;BME280;69692;55.820;37.490;2023-07-29T10:51:24;98805.88;;;17.37;83.72
80382;BME280;69692;55.820;37.490;2023-07-29T10:54:09;98800.06;;;17.43;83.33
80382;BME280;69692;55.820;37.490;2023-07-29T10:56:36;98792.22;;;17.42;83.96
80382;BME280;69692;55.820;37.490;2023-07-29T10:59:31;98794.53;;;17.48;83.68
80382;BME280;69692;55.820;37.490;2023-07-29T11:01:58;98792.03;;;17.52;83.36
80382;BME280;69692;55.820;37.490;2023-07-29T11:04:26;98792.81;;;17.52;82.71
80382;BME280;69692;55.820;37.490;2023-07-29T11:07:20;98793.06;;;17.56;83.51
80382;BME280;69692;55.820;37.490;2023-07-29T11:09:58;98780.34;;;17.51;84.08
80382;BME280;69692;55.820;37.490;2023-07-29T11:12:44;98794.44;;;17.53;84.17
80382;BME280;69692;55.820;37.490;2023-07-29T11:15:25;98792.22;;;17.55;83.63
80382;BME280;69692;55.820;37.490;2023-07-29T11:17:56;98793.06;;;17.56;83.09
80382;BME280;69692;55.820;37.490;2023-07-29T11:20:25;98782.84;;;17.48;83.17
80382;BME280;69692;55.820;37.490;2023-07-29T11:22:53;98798.16;;;17.44;82.06
80382;BME280;69692;55.820;37.490;2023-07-29T11:25:21;98792.91;;;17.47;81.54
80382;BME280;69692;55.820;37.490;2023-07-29T11:27:47;98793.94;;;17.51;80.90
80382;BME280;69692;55.820;37.490;2023-07-29T11:30:15;98787.38;;;17.52;81.80
80382;BME280;69692;55.820;37.490;2023-07-29T11:32:43;98787.09;;;17.54;83.23
80382;BME280;69692;55.820;37.490;2023-07-29T11:35:13;98790.34;;;17.56;82.16
80382;BME280;69692;55.820;37.490;2023-07-29T11:37:43;98790.69;;;17.68;82.22
80382;BME280;69692;55.820;37.490;2023-07-29T11:40:12;98796.56;;;17.75;82.01
80382;BME280;69692;55.820;37.490;2023-07-29T11:42:38;98802.22;;;17.79;80.42
80382;BME280;69692;55.820;37.490;2023-07-29T11:45:05;98815.72;;;17.84;80.40
80382;BME280;69692;55.820;37.490;2023-07-29T11:47:35;98814.13;;;17.83;80.00
80382;BME280;69692;55.820;37.490;2023-07-29T11:50:04;98828.22;;;17.85;78.75
80382;BME280;69692;55.820;37.490;2023-07-29T11:52:34;98814.34;;;17.86;79.10
80382;BME280;69692;55.820;37.490;2023-07-29T11:55:02;98825.50;;;17.85;79.30
80382;BME280;69692;55.820;37.490;2023-07-29T11:57:30;98827.97;;;17.86;79.59
80382;BME280;69692;55.820;37.490;2023-07-29T11:59:56;98826.41;;;17.80;79.26
80382;BME280;69692;55.820;37.490;2023-07-29T12:02:23;98836.38;;;17.85;79.23
80382;BME280;69692;55.820;37.490;2023-07-29T12:04:51;98829.34;;;17.84;79.05
80382;BME280;69692;55.820;37.490;2023-07-29T12:07:18;98838.31;;;17.84;79.43
80382;BME280;69692;55.820;37.490;2023-07-29T12:09:45;98834.50;;;17.85;81.68
80382;BME280;69692;55.820;37.490;2023-07-29T12:12:12;98832.66;;;17.81;81.80
80382;BME280;69692;55.820;37.490;2023-07-29T12:14:37;98829.06;;;17.85;81.86
80382;BME280;69692;55.820;37.490;2023-07-29T12:17:05;98832.28;;;17.87;81.16
80382;BME280;69692;55.820;37.490;2023-07-29T12:19:33;98827.34;;;17.90;81.65
80382;BME280;69692;55.820;37.490;2023-07-29T12:22:00;98825.66;;;17.94;79.48
80382;BME280;69692;55.820;37.490;2023-07-29T12:24:27;98829.38;;;17.98;81.01
80382;BME280;69692;55.820;37.490;2023-07-29T12:26:53;98826.75;;;17.93;79.26
80382;BME280;69692;55.820;37.490;2023-07-29T12:29:19;98821.81;;;17.95;78.88
80382;BME280;69692;55.820;37.490;2023-07-29T12:31:48;98814.34;;;18.00;78.08
80382;BME280;69692;55.820;37.490;2023-07-29T12:34:19;98812.97;;;18.03;76.03
80382;BME280;69692;55.820;37.490;2023-07-29T12:36:48;98807.22;;;18.04;76.87
80382;BME280;69692;55.820;37.490;2023-07-29T12:39:21;98809.66;;;18.06;76.78
80382;BME280;69692;55.820;37.490;2023-07-29T12:41:49;98811.56;;;18.05;76.96
80382;BME280;69692;55.820;37.490;2023-07-29T12:44:15;98816.00;;;18.01;77.37
80382;BME280;69692;55.820;37.490;2023-07-29T12:46:41;98822.41;;;17.92;78.44
80382;BME280;69692;55.820;37.490;2023-07-29T12:49:07;98817.94;;;17.82;75.24
80382;BME280;69692;55.820;37.490;2023-07-29T12:51:33;98814.41;;;17.81;75.64
80382;BME280;69692;55.820;37.490;2023-07-29T12:54:00;98820.16;;;17.80;74.65
80382;BME280;69692;55.820;37.490;2023-07-29T12:56:26;98809.56;;;17.78;75.07